sensor_id;sensor_type;location;lat;lon;timestamp;pressure;altitude;pressure_sealevel;temperature;humidity
44079;BME280;29744;49.078;12.878;2023-04-24T00:02:14;95480.84;;;14.87;37.36
44079;BME280;29744;49.078;12.878;2023-04-24T00:07:15;95483.56;;;14.87;37.16
44079;BME280;29744;49.078;12.878;2023-04-24T00:12:20;95478.94;;;14.87;37.24
44079;BME280;29744;49.078;12.878;2023-04-24T00:17:20;95482.78;;;14.86;37.59
44079;BME280;29744;49.078;12.878;2023-04-24T00:22:21;95479.28;;;14.86;37.51
44079;BME280;29744;49.078;12.878;2023-04-24T00:27:21;95482.00;;;14.86;37.12
44079;BME280;29744;49.078;12.878;2023-04-24T00:32:21;95467.72;;;14.85;37.52
44079;BME280;29744;49.078;12.878;2023-04-24T00:37:22;95463.44;;;14.84;37.33
44079;BME280;29744;49.078;12.878;2023-04-24T00:42:22;95454.22;;;14.85;37.46
44079;BME280;29744;49.078;12.878;2023-04-24T00:47:23;95455.34;;;14.84;37.69
44079;BME280;29744;49.078;12.878;2023-04-24T00:52:24;95445.31;;;14.85;37.38
44079;BME280;29744;49.078;12.878;2023-04-24T00:57:26;95440.28;;;14.83;37.23
44079;BME280;29744;49.078;12.878;2023-04-24T01:02:26;95445.69;;;14.83;37.33
44079;BME280;29744;49.078;12.878;2023-04-24T01:07:27;95445.69;;;14.83;37.30
44079;BME280;29744;49.078;12.878;2023-04-24T01:12:27;95439.16;;;14.84;37.32
44079;BME280;29744;49.078;12.878;2023-04-24T01:17:28;95442.28;;;14.86;37.42
44079;BME280;29744;49.078;12.878;2023-04-24T01:22:28;95442.38;;;14.90;36.94
44079;BME280;29744;49.078;12.878;2023-04-24T01:27:28;95439.84;;;14.97;37.38
44079;BME280;29744;49.078;12.878;2023-04-24T01:32:29;95423.38;;;15.02;37.25
44079;BME280;29744;49.078;12.878;2023-04-24T01:37:29;95426.59;;;15.07;37.18
44079;BME280;29744;49.078;12.878;2023-04-24T01:42:31;95412.47;;;15.14;37.12
44079;BME280;29744;49.078;12.878;2023-04-24T01:47:32;95406.81;;;15.19;37.20
44079;BME280;29744;49.078;12.878;2023-04-24T01:52:33;95411.16;;;15.24;36.98
44079;BME280;29744;49.078;12.878;2023-04-24T01:57:33;95411.66;;;15.29;36.78
44079;BME280;29744;49.078;12.878;2023-04-24T02:02:33;95404.41;;;15.33;36.86
44079;BME280;29744;49.078;12.878;2023-04-24T02:07:34;95397.19;;;15.37;36.87
44079;BME280;29744;49.078;12.878;2023-04-24T02:12:35;95392.97;;;15.40;36.68
44079;BME280;29744;49.078;12.878;2023-04-24T02:17:35;95391.50;;;15.42;36.95
44079;BME280;29744;49.078;12.878;2023-04-24T02:22:36;95391.91;;;15.44;36.79
44079;BME280;29744;49.078;12.878;2023-04-24T02:27:36;95390.44;;;15.47;36.45
44079;BME280;29744;49.078;12.878;2023-04-24T02:32:36;95390.44;;;15.47;36.42
44079;BME280;29744;49.078;12.878;2023-04-24T02:37:37;95397.03;;;15.50;36.87
44079;BME280;29744;49.078;12.878;2023-04-24T02:42:37;95385.44;;;15.49;36.39
44079;BME280;29744;49.078;12.878;2023-04-24T02:47:37;95388.16;;;15.49;36.59
44079;BME280;29744;49.078;12.878;2023-04-24T02:52:38;95382.75;;;15.49;36.62
44079;BME280;29744;49.078;12.878;2023-04-24T02:57:38;95382.41;;;15.51;36.74
44079;BME280;29744;49.078;12.878;2023-04-24T03:02:38;95370.81;;;15.50;36.70
44079;BME280;29744;49.078;12.878;2023-04-24T03:07:38;95366.53;;;15.49;36.22
44079;BME280;29744;49.078;12.878;2023-04-24T03:12:39;95370.03;;;15.50;36.47
44079;BME280;29744;49.078;12.878;2023-04-24T03:17:39;95360.34;;;15.49;36.55
44079;BME280;29744;49.078;12.878;2023-04-24T03:22:39;95353.38;;;15.48;36.62
44079;BME280;29744;49.078;12.878;2023-04-24T03:27:39;95356.09;;;15.48;36.81
44079;BME280;29744;49.078;12.878;2023-04-24T03:32:40;95363.41;;;15.47;36.45
44079;BME280;29744;49.078;12.878;2023-04-24T03:37:40;95352.97;;;15.45;36.70
44079;BME280;29744;49.078;12.878;2023-04-24T03:42:40;95359.50;;;15.44;36.28
44079;BME280;29744;49.078;12.878;2023-04-24T03:47:41;95365.25;;;15.43;36.33
44079;BME280;29744;49.078;12.878;2023-04-24T03:52:41;95360.22;;;15.41;36.45
44079;BME280;29744;49.078;12.878;2023-04-24T03:57:41;95364.81;;;15.41;36.28
44079;BME280;29744;49.078;12.878;2023-04-24T04:02:41;95374.84;;;15.40;36.54
44079;BME280;29744;49.078;12.878;2023-04-24T04:07:42;95363.63;;;15.38;36.85
44079;BME280;29744;49.078;12.878;2023-04-24T04:12:42;95380.59;;;15.39;36.63
44079;BME280;29744;49.078;12.878;2023-04-24T04:17:42;95371.28;;;15.36;36.79
44079;BME280;29744;49.078;12.878;2023-04-24T04:22:42;95376.69;;;15.36;36.44
44079;BME280;29744;49.078;12.878;2023-04-24T04:27:43;95379.41;;;15.36;36.41
44079;BME280;29744;49.078;12.878;2023-04-24T04:32:43;95381.31;;;15.36;36.66
44079;BME280;29744;49.078;12.878;2023-04-24T04:37:44;95378.97;;;15.34;36.35
44079;BME280;29744;49.078;12.878;2023-04-24T04:42:44;95386.28;;;15.34;36.67
44079;BME280;29744;49.078;12.878;2023-04-24T04:47:46;95389.34;;;15.32;36.88
44079;BME280;29744;49.078;12.878;2023-04-24T04:52:46;95383.16;;;15.32;36.56
44079;BME280;29744;49.078;12.878;2023-04-24T04:57:47;95387.00;;;15.31;36.60
44079;BME280;29744;49.078;12.878;2023-04-24T05:02:47;95389.69;;;15.31;36.56
44079;BME280;29744;49.078;12.878;2023-04-24T05:07:47;95394.31;;;15.30;36.46
44079;BME280;29744;49.078;12.878;2023-04-24T05:12:47;95397.03;;;15.30;36.84
44079;BME280;29744;49.078;12.878;2023-04-24T05:17:49;95398.94;;;15.30;36.83
44079;BME280;29744;49.078;12.878;2023-04-24T05:22:49;95394.69;;;15.29;36.63
44079;BME280;29744;49.078;12.878;2023-04-24T05:27:50;95398.50;;;15.28;36.68
44079;BME280;29744;49.078;12.878;2023-04-24T05:32:50;95402.34;;;15.27;36.55
44079;BME280;29744;49.078;12.878;2023-04-24T05:37:50;95406.19;;;15.26;36.59
44079;BME280;29744;49.078;12.878;2023-04-24T05:42:51;95403.47;;;15.26;36.39
44079;BME280;29744;49.078;12.878;2023-04-24T05:47:51;95409.25;;;15.24;36.64
44079;BME280;29744;49.078;12.878;2023-04-24T05:52:52;95407.31;;;15.25;36.79
44079;BME280;29744;49.078;12.878;2023-04-24T05:57:53;95410.38;;;15.23;36.46
44079;BME280;29744;49.078;12.878;2023-04-24T06:02:54;95409.16;;;15.21;36.54
44079;BME280;29744;49.078;12.878;2023-04-24T06:07:54;95401.06;;;15.21;36.80
44079;BME280;29744;49.078;12.878;2023-04-24T06:12:54;95406.81;;;15.19;37.06
44079;BME280;29744;49.078;12.878;2023-04-24T06:18:00;95406.81;;;15.19;37.06
44079;BME280;29744;49.078;12.878;2023-04-24T06:23:00;95414.13;;;15.19;37.07
44079;BME280;29744;49.078;12.878;2023-04-24T06:28:00;95423.38;;;15.18;36.75
44079;BME280;29744;49.078;12.878;2023-04-24T06:33:01;95440.34;;;15.18;37.05
44079;BME280;29744;49.078;12.878;2023-04-24T06:38:02;95442.63;;;15.16;37.08
44079;BME280;29744;49.078;12.878;2023-04-24T06:43:02;95439.13;;;15.16;36.76
44079;BME280;29744;49.078;12.878;2023-04-24T06:48:02;95433.75;;;15.16;36.54
44079;BME280;29744;49.078;12.878;2023-04-24T06:53:03;95435.66;;;15.15;36.74
44079;BME280;29744;49.078;12.878;2023-04-24T06:58:03;95435.66;;;15.15;36.58
44079;BME280;29744;49.078;12.878;2023-04-24T07:03:04;95435.66;;;15.15;37.14
44079;BME280;29744;49.078;12.878;2023-04-24T07:08:07;95434.16;;;15.18;37.56
44079;BME280;29744;49.078;12.878;2023-04-24T07:13:07;95431.19;;;15.23;37.61
44079;BME280;29744;49.078;12.878;2023-04-24T07:18:08;95441.38;;;15.29;37.92
44079;BME280;29744;49.078;12.878;2023-04-24T07:23:09;95450.41;;;15.37;37.71
44079;BME280;29744;49.078;12.878;2023-04-24T07:28:09;95439.00;;;15.43;38.33
44079;BME280;29744;49.078;12.878;2023-04-24T07:33:09;95451.50;;;15.52;37.99
44079;BME280;29744;49.078;12.878;2023-04-24T07:38:13;95445.03;;;15.56;38.36
44079;BME280;29744;49.078;12.878;2023-04-24T07:43:13;95440.16;;;15.62;38.05
44079;BME280;29744;49.078;12.878;2023-04-24T07:48:13;95447.97;;;15.67;38.33
44079;BME280;29744;49.078;12.878;2023-04-24T07:53:16;95451.97;;;15.73;38.26
44079;BME280;29744;49.078;12.878;2023-04-24T07:58:16;95457.09;;;15.78;38.57
44079;BME280;29744;49.078;12.878;2023-04-24T08:03:16;95453.72;;;15.81;38.32
44079;BME280;29744;49.078;12.878;2023-04-24T08:08:21;95462.31;;;15.87;38.37
44079;BME280;29744;49.078;12.878;2023-04-24T08:13:22;95467.44;;;15.92;38.20
44079;BME280;29744;49.078;12.878;2023-04-24T08:18:25;95465.16;;;15.94;38.37
44079;BME280;29744;49.078;12.878;2023-04-24T08:23:25;95467.16;;;15.97;38.05
44079;BME280;29744;49.078;12.878;2023-04-24T08:28:25;95469.16;;;16.00;38.20
44079;BME280;29744;49.078;12.878;2023-04-24T08:33:25;95464.94;;;16.02;38.34
44079;BME280;29744;49.078;12.878;2023-04-24T08:38:26;95466.16;;;16.05;37.85
44079;BME280;29744;49.078;12.878;2023-04-24T08:43:26;95463.47;;;16.05;38.08
44079;BME280;29744;49.078;12.878;2023-04-24T08:48:27;95472.41;;;16.09;38.33
44079;BME280;29744;49.078;12.878;2023-04-24T08:53:28;95469.34;;;16.10;38.13
44079;BME280;29744;49.078;12.878;2023-04-24T08:58:29;95462.44;;;16.13;37.93
44079;BME280;29744;49.078;12.878;2023-04-24T09:03:30;95465.22;;;16.17;38.18
44079;BME280;29744;49.078;12.878;2023-04-24T09:08:32;95472.63;;;16.20;38.12
44079;BME280;29744;49.078;12.878;2023-04-24T09:13:33;95467.63;;;16.22;38.16
44079;BME280;29744;49.078;12.878;2023-04-24T09:18:33;95462.22;;;16.22;38.12
44079;BME280;29744;49.078;12.878;2023-04-24T09:23:35;95466.50;;;16.23;37.90
44079;BME280;29744;49.078;12.878;2023-04-24T09:28:37;95464.22;;;16.25;37.65
44079;BME280;29744;49.078;12.878;2023-04-24T09:33:38;95457.66;;;16.26;37.64
44079;BME280;29744;49.078;12.878;2023-04-24T09:38:38;95460.81;;;16.28;37.61
44079;BME280;29744;49.078;12.878;2023-04-24T09:43:39;95457.38;;;16.31;37.45
44079;BME280;29744;49.078;12.878;2023-04-24T09:48:39;95469.06;;;16.35;37.44
44079;BME280;29744;49.078;12.878;2023-04-24T09:53:44;95469.47;;;16.37;37.51
44079;BME280;29744;49.078;12.878;2023-04-24T09:58:46;95512.78;;;16.37;37.66
44079;BME280;29744;49.078;12.878;2023-04-24T10:03:46;95535.56;;;16.36;37.39
44079;BME280;29744;49.078;12.878;2023-04-24T10:08:47;95545.59;;;16.35;37.32
44079;BME280;29744;49.078;12.878;2023-04-24T10:13:48;95541.69;;;16.33;37.44
44079;BME280;29744;49.078;12.878;2023-04-24T10:18:48;95542.03;;;16.31;37.23
44079;BME280;29744;49.078;12.878;2023-04-24T10:23:50;95539.69;;;16.30;37.21
44079;BME280;29744;49.078;12.878;2023-04-24T10:28:51;95535.78;;;16.27;37.21
44079;BME280;29744;49.078;12.878;2023-04-24T10:33:53;95533.41;;;16.26;37.38
44079;BME280;29744;49.078;12.878;2023-04-24T10:38:55;95530.28;;;16.24;37.50
44079;BME280;29744;49.078;12.878;2023-04-24T10:44:10;95522.09;;;16.20;37.46
44079;BME280;29744;49.078;12.878;2023-04-24T10:49:11;95523.25;;;16.19;37.39
44079;BME280;29744;49.078;12.878;2023-04-24T10:54:27;95529.00;;;16.18;37.58
44079;BME280;29744;49.078;12.878;2023-04-24T10:59:34;95519.69;;;16.15;37.47
44079;BME280;29744;49.078;12.878;2023-04-24T11:04:35;95522.75;;;16.14;37.56
44079;BME280;29744;49.078;12.878;2023-04-24T11:09:36;95525.03;;;16.12;37.33
44079;BME280;29744;49.078;12.878;2023-04-24T11:20:01;95534.13;;;16.03;37.43
44079;BME280;29744;49.078;12.878;2023-04-24T11:25:03;95535.97;;;15.99;37.38
44079;BME280;29744;49.078;12.878;2023-04-24T11:30:04;95544.00;;;15.96;37.60
44079;BME280;29744;49.078;12.878;2023-04-24T11:35:06;95552.81;;;15.93;37.31
44079;BME280;29744;49.078;12.878;2023-04-24T11:40:09;95558.94;;;15.90;37.14
44079;BME280;29744;49.078;12.878;2023-04-24T11:45:25;95556.59;;;15.88;37.23
44079;BME280;29744;49.078;12.878;2023-04-24T11:50:26;95550.75;;;15.86;37.60
44079;BME280;29744;49.078;12.878;2023-04-24T11:55:28;95555.81;;;15.88;37.37
44079;BME280;29744;49.078;12.878;2023-04-24T12:00:31;95549.63;;;15.87;37.27
44079;BME280;29744;49.078;12.878;2023-04-24T12:05:33;95534.53;;;15.86;37.28
44079;BME280;29744;49.078;12.878;2023-04-24T12:10:35;95531.03;;;15.86;36.80
44079;BME280;29744;49.078;12.878;2023-04-24T12:15:35;95537.25;;;15.86;37.02
44079;BME280;29744;49.078;12.878;2023-04-24T12:20:35;95528.69;;;15.84;37.56
44079;BME280;29744;49.078;12.878;2023-04-24T12:25:35;95524.84;;;15.85;37.16
44079;BME280;29744;49.078;12.878;2023-04-24T12:30:48;95527.47;;;15.82;37.44
44079;BME280;29744;49.078;12.878;2023-04-24T12:35:52;95534.81;;;15.81;37.50
44079;BME280;29744;49.078;12.878;2023-04-24T12:41:03;95531.22;;;15.77;36.88
44079;BME280;29744;49.078;12.878;2023-04-24T12:46:04;95546.22;;;15.74;37.22
44079;BME280;29744;49.078;12.878;2023-04-24T12:51:05;95580.16;;;15.72;37.10
44079;BME280;29744;49.078;12.878;2023-04-24T12:56:05;95588.97;;;15.69;37.24
44079;BME280;29744;49.078;12.878;2023-04-24T13:01:05;95578.50;;;15.67;37.09
44079;BME280;29744;49.078;12.878;2023-04-24T13:06:06;95571.53;;;15.66;37.58
44079;BME280;29744;49.078;12.878;2023-04-24T13:11:06;95570.75;;;15.66;37.04
44079;BME280;29744;49.078;12.878;2023-04-24T13:16:06;95568.47;;;15.68;37.49
44079;BME280;29744;49.078;12.878;2023-04-24T13:21:06;95558.78;;;15.67;37.24
44079;BME280;29744;49.078;12.878;2023-04-24T13:26:07;95547.19;;;15.66;37.23
44079;BME280;29744;49.078;12.878;2023-04-24T13:31:07;95543.72;;;15.66;37.42
44079;BME280;29744;49.078;12.878;2023-04-24T13:36:08;95531.34;;;15.65;37.39
44079;BME280;29744;49.078;12.878;2023-04-24T13:41:08;95535.97;;;15.64;37.41
44079;BME280;29744;49.078;12.878;2023-04-24T13:46:08;95530.53;;;15.64;37.50
44079;BME280;29744;49.078;12.878;2023-04-24T13:51:08;95525.94;;;15.65;37.39
44079;BME280;29744;49.078;12.878;2023-04-24T13:56:09;95520.09;;;15.63;37.60
44079;BME280;29744;49.078;12.878;2023-04-24T14:01:10;95522.00;;;15.62;37.19
44079;BME280;29744;49.078;12.878;2023-04-24T14:06:10;95530.13;;;15.62;37.68
44079;BME280;29744;49.078;12.878;2023-04-24T14:11:11;95540.16;;;15.62;37.42
44079;BME280;29744;49.078;12.878;2023-04-24T14:16:11;95548.25;;;15.62;37.61
44079;BME280;29744;49.078;12.878;2023-04-24T14:21:12;95552.09;;;15.61;37.81
44079;BME280;29744;49.078;12.878;2023-04-24T14:26:12;95555.16;;;15.59;37.74
44079;BME280;29744;49.078;12.878;2023-04-24T14:31:12;95558.97;;;15.58;37.53
44079;BME280;29744;49.078;12.878;2023-04-24T14:36:13;95567.09;;;15.58;37.68
44079;BME280;29744;49.078;12.878;2023-04-24T14:41:13;95562.81;;;15.57;37.29
44079;BME280;29744;49.078;12.878;2023-04-24T14:46:13;95562.81;;;15.57;37.70
44079;BME280;29744;49.078;12.878;2023-04-24T14:51:14;95554.72;;;15.57;37.82
44079;BME280;29744;49.078;12.878;2023-04-24T14:56:14;95561.25;;;15.56;37.42
44079;BME280;29744;49.078;12.878;2023-04-24T15:01:15;95558.56;;;15.56;37.21
44079;BME280;29744;49.078;12.878;2023-04-24T15:06:15;95551.94;;;15.54;37.25
44079;BME280;29744;49.078;12.878;2023-04-24T15:11:15;95569.28;;;15.53;37.76
44079;BME280;29744;49.078;12.878;2023-04-24T15:16:16;95573.53;;;15.54;37.47
44079;BME280;29744;49.078;12.878;2023-04-24T15:21:16;95585.84;;;15.51;37.16
44079;BME280;29744;49.078;12.878;2023-04-24T15:26:17;95586.19;;;15.50;37.72
44079;BME280;29744;49.078;12.878;2023-04-24T15:31:18;95604.66;;;15.48;37.24
44079;BME280;29744;49.078;12.878;2023-04-24T15:36:18;95600.41;;;15.46;37.16
44079;BME280;29744;49.078;12.878;2023-04-24T15:41:19;95606.16;;;15.45;37.25
44079;BME280;29744;49.078;12.878;2023-04-24T15:46:19;95617.66;;;15.42;37.42
44079;BME280;29744;49.078;12.878;2023-04-24T15:51:20;95610.69;;;15.41;37.50
44079;BME280;29744;49.078;12.878;2023-04-24T15:56:20;95611.03;;;15.39;37.45
44079;BME280;29744;49.078;12.878;2023-04-24T16:01:21;95616.00;;;15.37;37.47
44079;BME280;29744;49.078;12.878;2023-04-24T16:06:21;95620.63;;;15.37;37.31
44079;BME280;29744;49.078;12.878;2023-04-24T16:11:22;95631.78;;;15.35;37.64
44079;BME280;29744;49.078;12.878;2023-04-24T16:16:22;95632.91;;;15.34;37.42
44079;BME280;29744;49.078;12.878;2023-04-24T16:21:23;95634.81;;;15.34;37.83
44079;BME280;29744;49.078;12.878;2023-04-24T16:26:23;95638.66;;;15.33;37.65
44079;BME280;29744;49.078;12.878;2023-04-24T16:31:24;95648.69;;;15.32;37.69
44079;BME280;29744;49.078;12.878;2023-04-24T16:36:24;95646.31;;;15.31;37.24
44079;BME280;29744;49.078;12.878;2023-04-24T16:41:28;95649.81;;;15.31;37.35
44079;BME280;29744;49.078;12.878;2023-04-24T16:46:28;95637.78;;;15.29;37.80
44079;BME280;29744;49.078;12.878;2023-04-24T16:51:28;95636.22;;;15.28;37.68
44079;BME280;29744;49.078;12.878;2023-04-24T16:56:29;95640.03;;;15.27;37.42
44079;BME280;29744;49.078;12.878;2023-04-24T17:01:29;95650.06;;;15.26;37.32
44079;BME280;29744;49.078;12.878;2023-04-24T17:06:30;95650.06;;;15.26;37.58
44079;BME280;29744;49.078;12.878;2023-04-24T17:11:30;95654.69;;;15.26;37.60
44079;BME280;29744;49.078;12.878;2023-04-24T17:16:30;95655.03;;;15.24;37.43
44079;BME280;29744;49.078;12.878;2023-04-24T17:21:31;95666.97;;;15.23;37.63
44079;BME280;29744;49.078;12.878;2023-04-24T17:26:32;95672.38;;;15.23;37.63
44079;BME280;29744;49.078;12.878;2023-04-24T17:31:32;95675.41;;;15.22;37.62
44079;BME280;29744;49.078;12.878;2023-04-24T17:36:32;95675.75;;;15.20;37.66
44079;BME280;29744;49.078;12.878;2023-04-24T17:41:33;95695.00;;;15.19;37.81
44079;BME280;29744;49.078;12.878;2023-04-24T17:46:33;95706.59;;;15.19;37.72
44079;BME280;29744;49.078;12.878;2023-04-24T17:51:34;95705.38;;;15.17;37.36
44079;BME280;29744;49.078;12.878;2023-04-24T17:56:34;95711.91;;;15.16;37.56
44079;BME280;29744;49.078;12.878;2023-04-24T18:01:35;95715.41;;;15.16;37.55
44079;BME280;29744;49.078;12.878;2023-04-24T18:06:35;95717.31;;;15.16;37.76
44079;BME280;29744;49.078;12.878;2023-04-24T18:11:36;95727.31;;;15.15;37.75
44079;BME280;29744;49.078;12.878;2023-04-24T18:16:36;95726.19;;;15.16;37.67
44079;BME280;29744;49.078;12.878;2023-04-24T18:21:37;95735.09;;;15.17;37.60
44079;BME280;29744;49.078;12.878;2023-04-24T18:26:37;95726.97;;;15.17;37.71
44079;BME280;29744;49.078;12.878;2023-04-24T18:31:37;95738.56;;;15.17;37.93
44079;BME280;29744;49.078;12.878;2023-04-24T18:36:37;95744.75;;;15.18;37.55
44079;BME280;29744;49.078;12.878;2023-04-24T18:41:38;95749.81;;;15.19;37.92
44079;BME280;29744;49.078;12.878;2023-04-24T18:46:38;95757.91;;;15.19;37.34
44079;BME280;29744;49.078;12.878;2023-04-24T18:51:40;95757.91;;;15.19;37.62
44079;BME280;29744;49.078;12.878;2023-04-24T18:56:40;95763.31;;;15.19;37.65
44079;BME280;29744;49.078;12.878;2023-04-24T19:01:40;95766.81;;;15.20;37.66
44079;BME280;29744;49.078;12.878;2023-04-24T19:06:41;95768.72;;;15.19;37.29
44079;BME280;29744;49.078;12.878;2023-04-24T19:11:41;95773.00;;;15.20;37.26
44079;BME280;29744;49.078;12.878;2023-04-24T19:16:42;95775.69;;;15.20;37.66
44079;BME280;29744;49.078;12.878;2023-04-24T19:21:43;95773.00;;;15.20;37.72
44079;BME280;29744;49.078;12.878;2023-04-24T19:26:44;95780.31;;;15.20;37.25
44079;BME280;29744;49.078;12.878;2023-04-24T19:31:44;95784.13;;;15.19;37.27
44079;BME280;29744;49.078;12.878;2023-04-24T19:36:44;95785.72;;;15.20;37.69
44079;BME280;29744;49.078;12.878;2023-04-24T19:41:45;95786.06;;;15.18;37.36
44079;BME280;29744;49.078;12.878;2023-04-24T19:46:45;95786.06;;;15.18;37.48
44079;BME280;29744;49.078;12.878;2023-04-24T19:51:45;95784.47;;;15.17;37.51
44079;BME280;29744;49.078;12.878;2023-04-24T19:56:46;95786.41;;;15.17;37.54
44079;BME280;29744;49.078;12.878;2023-04-24T20:01:46;95788.31;;;15.16;37.67
44079;BME280;29744;49.078;12.878;2023-04-24T20:06:48;95788.31;;;15.16;37.61
44079;BME280;29744;49.078;12.878;2023-04-24T20:11:48;95799.13;;;15.16;37.57
44079;BME280;29744;49.078;12.878;2023-04-24T20:16:50;95788.66;;;15.14;37.43
44079;BME280;29744;49.078;12.878;2023-04-24T20:21:50;95790.56;;;15.14;37.64
44079;BME280;29744;49.078;12.878;2023-04-24T20:26:51;95795.53;;;15.12;37.55
44079;BME280;29744;49.078;12.878;2023-04-24T20:31:51;95805.19;;;15.13;37.37
44079;BME280;29744;49.078;12.878;2023-04-24T20:36:51;95807.47;;;15.11;37.82
44079;BME280;29744;49.078;12.878;2023-04-24T20:41:52;95804.75;;;15.11;37.56
44079;BME280;29744;49.078;12.878;2023-04-24T20:46:52;95803.19;;;15.10;37.43
44079;BME280;29744;49.078;12.878;2023-04-24T20:51:52;95800.03;;;15.08;37.59
44079;BME280;29744;49.078;12.878;2023-04-24T20:56:53;95801.16;;;15.07;37.57
44079;BME280;29744;49.078;12.878;2023-04-24T21:01:53;95801.50;;;15.05;37.83
44079;BME280;29744;49.078;12.878;2023-04-24T21:06:53;95804.22;;;15.05;37.23
44079;BME280;29744;49.078;12.878;2023-04-24T21:11:54;95806.13;;;15.05;37.67
44079;BME280;29744;49.078;12.878;2023-04-24T21:16:54;95800.28;;;15.03;37.24
44079;BME280;29744;49.078;12.878;2023-04-24T21:21:57;95792.19;;;15.03;37.56
44079;BME280;29744;49.078;12.878;2023-04-24T21:26:57;95801.38;;;15.02;37.64
44079;BME280;29744;49.078;12.878;2023-04-24T21:31:57;95795.19;;;15.01;37.60
44079;BME280;29744;49.078;12.878;2023-04-24T21:36:58;95797.09;;;15.01;37.43
44079;BME280;29744;49.078;12.878;2023-04-24T21:41:58;95798.25;;;15.00;37.76
44079;BME280;29744;49.078;12.878;2023-04-24T21:46:58;95793.97;;;14.99;37.83
44079;BME280;29744;49.078;12.878;2023-04-24T21:51:58;95795.09;;;14.98;37.72
44079;BME280;29744;49.078;12.878;2023-04-24T21:56:59;95799.69;;;14.97;37.93
44079;BME280;29744;49.078;12.878;2023-04-24T22:02:01;95798.13;;;14.96;37.54
44079;BME280;29744;49.078;12.878;2023-04-24T22:07:01;95794.66;;;14.96;37.65
44079;BME280;29744;49.078;12.878;2023-04-24T22:12:03;95798.13;;;14.96;37.66
44079;BME280;29744;49.078;12.878;2023-04-24T22:17:04;95786.88;;;14.94;37.67
44079;BME280;29744;49.078;12.878;2023-04-24T22:22:04;95787.22;;;14.93;37.46
44079;BME280;29744;49.078;12.878;2023-04-24T22:27:04;95791.06;;;14.92;37.61
44079;BME280;29744;49.078;12.878;2023-04-24T22:32:05;95784.09;;;14.91;37.95
44079;BME280;29744;49.078;12.878;2023-04-24T22:37:05;95788.69;;;14.90;37.75
44079;BME280;29744;49.078;12.878;2023-04-24T22:42:07;95784.44;;;14.89;37.93
44079;BME280;29744;49.078;12.878;2023-04-24T22:47:07;95783.63;;;14.89;37.93
44079;BME280;29744;49.078;12.878;2023-04-24T22:52:08;95780.16;;;14.88;37.75
44079;BME280;29744;49.078;12.878;2023-04-24T22:57:08;95775.09;;;14.87;37.67
44079;BME280;29744;49.078;12.878;2023-04-24T23:02:09;95774.31;;;14.86;37.48
44079;BME280;29744;49.078;12.878;2023-04-24T23:07:09;95772.41;;;14.87;37.59
44079;BME280;29744;49.078;12.878;2023-04-24T23:12:10;95780.06;;;14.85;38.03
44079;BME280;29744;49.078;12.878;2023-04-24T23:17:10;95781.97;;;14.84;37.79
44079;BME280;29744;49.078;12.878;2023-04-24T23:22:10;95767.69;;;14.83;37.66
44079;BME280;29744;49.078;12.878;2023-04-24T23:27:10;95766.91;;;14.83;37.75
44079;BME280;29744;49.078;12.878;2023-04-24T23:32:11;95759.91;;;14.82;37.67
44079;BME280;29744;49.078;12.878;2023-04-24T23:37:11;95761.03;;;14.81;37.72
44079;BME280;29744;49.078;12.878;2023-04-24T23:42:11;95758.34;;;14.81;37.79
44079;BME280;29744;49.078;12.878;2023-04-24T23:47:12;95754.06;;;14.80;37.98
44079;BME280;29744;49.078;12.878;2023-04-24T23:52:12;95752.50;;;14.79;37.75
44079;BME280;29744;49.078;12.878;2023-04-24T23:57:12;95754.41;;;14.78;37.72
